Time;durP1;ratioP1;P1;durP2;ratioP2;P2;SDS_P1;SDS_P2;PMS_P1;PMS_P2;Temp;Humidity;BMP_temperature;BMP_pressure;BME280_temperature;BME280_humidity;BME280_pressure;Samples;Min_cycle;Max_cycle;Signal;HPM_P1;HPM_P2
2022/05/28 00:01:33;;;;;;;6.80;3.10;;;14.30;70.40;;;14.32;56.30;98013.16;5009654;28;20060;-39
2022/05/28 00:04:04;;;;;;;6.75;2.92;;;14.20;68.00;;;14.46;56.02;98008.91;5010758;28;20050;-40
2022/05/28 00:06:35;;;;;;;4.70;3.30;;;14.20;67.50;;;14.31;55.73;98019.56;5009331;28;20057;-40
2022/05/28 00:09:04;;;;;;;7.80;2.83;;;14.10;67.10;;;14.44;55.88;98021.63;5010196;28;20061;-39
2022/05/28 00:11:38;;;;;;;7.10;3.42;;;14.20;67.60;;;14.19;55.54;98024.47;5008757;28;20056;-39
2022/05/28 00:14:07;;;;;;;6.45;2.97;;;14.00;66.40;;;14.09;54.60;98023.81;5010013;28;20056;-39
2022/05/28 00:16:36;;;;;;;6.50;3.15;;;14.00;65.50;;;14.21;54.58;98030.47;5008148;28;20221;-39
2022/05/28 00:19:05;;;;;;;4.40;3.05;;;14.00;65.00;;;14.22;54.49;98026.78;5024700;28;20061;-39
2022/05/28 00:21:34;;;;;;;7.90;2.92;;;14.00;65.00;;;14.17;53.85;98030.00;5007957;28;20052;-39
2022/05/28 00:24:02;;;;;;;5.32;3.05;;;14.00;64.60;;;14.06;53.55;98021.50;5009420;28;20045;-40
2022/05/28 00:26:30;;;;;;;5.03;2.58;;;13.90;63.50;;;14.16;52.99;98025.63;5008376;28;20790;-39
2022/05/28 00:28:58;;;;;;;6.72;2.47;;;13.90;62.50;;;14.28;53.26;98030.59;5009287;28;20056;-39
2022/05/28 00:31:26;;;;;;;6.63;3.53;;;14.10;63.40;;;14.32;52.31;98031.91;5009037;28;20045;-39
2022/05/28 00:33:54;;;;;;;8.27;4.45;;;14.10;61.80;;;14.36;51.92;98027.88;5010256;28;20045;-39
2022/05/28 00:36:22;;;;;;;7.65;2.83;;;14.10;60.40;;;14.27;51.49;98027.09;5008327;28;20049;-39
2022/05/28 00:38:50;;;;;;;5.63;2.58;;;14.00;60.20;;;14.13;51.29;98034.03;5008252;28;20076;-39
2022/05/28 00:41:18;;;;;;;8.70;3.58;;;13.90;59.20;;;14.04;51.43;98035.06;5008979;28;20057;-39
2022/05/28 00:43:46;;;;;;;6.80;2.83;;;13.70;60.70;;;13.95;51.19;98038.78;5009530;28;20058;-39
2022/05/28 00:46:25;;;;;;;9.15;3.35;;;13.70;59.50;;;14.06;51.15;98048.28;5009332;28;20263;-39
2022/05/28 00:49:01;;;;;;;7.20;2.78;;;13.80;59.70;;;14.06;50.69;98040.25;5006134;28;20044;-39
2022/05/28 00:51:37;;;;;;;8.32;3.05;;;13.80;59.30;;;14.01;50.96;98039.94;5008933;28;20414;-39
2022/05/28 00:54:06;;;;;;;7.60;2.80;;;13.70;59.60;;;13.95;50.86;98030.75;5008952;28;20046;-39
2022/05/28 00:56:35;;;;;;;6.95;2.60;;;13.70;59.20;;;13.93;50.52;98038.13;5006624;28;20060;-39
2022/05/28 00:59:03;;;;;;;4.00;2.50;;;13.70;58.00;;;14.01;50.51;98038.09;5006955;28;20060;-39
2022/05/28 01:01:36;;;;;;;8.40;2.80;;;13.70;58.20;;;13.83;50.05;98037.50;5007772;28;20076;-39
2022/05/28 01:04:18;;;;;;;7.68;3.80;;;13.50;58.40;;;13.70;49.75;98038.84;5008899;28;20256;-39
2022/05/28 01:06:46;;;;;;;5.40;2.85;;;13.40;58.30;;;13.68;50.65;98034.69;5009218;28;20058;-39
2022/05/28 01:09:30;;;;;;;9.80;3.83;;;13.30;59.60;;;13.61;50.44;98039.03;5008457;28;20054;-39
2022/05/28 01:12:47;;;;;;;9.90;3.50;;;13.30;59.10;;;13.46;50.74;98036.25;5007413;28;20062;-39
2022/05/28 01:15:34;;;;;;;6.47;2.45;;;13.20;59.10;;;13.47;50.71;98032.56;5015905;28;20062;-39
2022/05/28 01:18:13;;;;;;;7.65;3.10;;;13.10;59.20;;;13.50;50.70;98032.22;5006913;28;20049;-39
2022/05/28 01:20:51;;;;;;;5.72;3.10;;;13.10;59.50;;;13.39;50.52;98039.56;5008286;28;20045;-39
2022/05/28 01:23:55;;;;;;;7.45;2.85;;;13.10;59.40;;;13.38;50.53;98037.91;5005981;28;20159;-39
2022/05/28 01:26:54;;;;;;;8.45;2.35;;;13.00;59.00;;;13.23;50.72;98030.72;5006218;28;20049;-39
2022/05/28 01:29:27;;;;;;;7.85;3.22;;;12.80;59.50;;;12.97;51.16;98032.56;5006789;28;20252;-39
2022/05/28 01:31:56;;;;;;;8.55;2.67;;;12.60;60.30;;;13.03;51.10;98031.06;5009002;28;20046;-39
2022/05/28 01:34:26;;;;;;;7.32;2.45;;;12.60;60.80;;;12.93;51.62;98033.06;5007056;28;20049;-39
2022/05/28 01:36:56;;;;;;;5.25;2.58;;;12.60;61.20;;;12.96;51.41;98041.59;5006999;28;20064;-39
2022/05/28 01:39:24;;;;;;;7.03;2.13;;;12.60;60.90;;;13.07;51.32;98044.94;5007247;28;20058;-39
2022/05/28 01:41:54;;;;;;;6.35;2.10;;;12.70;60.50;;;13.06;51.40;98045.94;5006511;28;20378;-39
2022/05/28 01:44:23;;;;;;;4.45;2.25;;;12.70;60.40;;;13.07;50.91;98051.13;4990363;28;20072;-39
2022/05/28 01:46:53;;;;;;;7.00;2.92;;;12.70;60.10;;;13.10;50.99;98042.75;5007210;28;20062;-39
2022/05/28 01:49:23;;;;;;;9.00;2.42;;;12.70;60.10;;;12.97;51.03;98040.59;5005894;28;20061;-39
2022/05/28 01:51:56;;;;;;;7.40;2.90;;;12.60;60.00;;;12.99;50.53;98038.59;5006532;28;20040;-37
2022/05/28 01:54:28;;;;;;;8.48;2.58;;;12.70;59.60;;;12.89;50.56;98043.28;5005774;28;20052;-39
2022/05/28 01:56:57;;;;;;;13.30;3.10;;;12.50;58.70;;;12.86;50.50;98040.09;5005654;28;20046;-39
2022/05/28 01:59:30;;;;;;;9.50;2.20;;;12.50;59.30;;;12.76;50.62;98043.75;5006374;28;20046;-37
2022/05/28 02:02:01;;;;;;;7.05;3.15;;;12.40;59.00;;;12.76;50.42;98035.72;5007256;28;20056;-38
2022/05/28 02:04:31;;;;;;;5.22;2.58;;;12.40;59.20;;;12.67;50.74;98019.88;5007179;28;20063;-39
2022/05/28 02:06:58;;;;;;;6.88;2.20;;;12.30;59.50;;;12.63;50.71;98031.88;5006995;28;20109;-38
2022/05/28 02:09:33;;;;;;;5.78;2.03;;;12.20;59.50;;;12.56;51.05;98042.38;5006286;28;20243;-38
2022/05/28 02:12:30;;;;;;;7.93;2.80;;;12.20;60.70;;;12.55;51.18;98030.84;5006062;28;20062;-37
2022/05/28 02:15:41;;;;;;;5.93;2.63;;;12.10;60.50;;;12.58;51.39;98040.38;5005750;28;20352;-37
2022/05/28 02:18:47;;;;;;;7.55;2.58;;;12.20;60.60;;;12.68;51.41;98029.53;5007562;28;20054;-37
2022/05/28 02:21:21;;;;;;;5.93;2.22;;;12.30;60.70;;;12.75;51.28;98019.88;5004590;28;20240;-37
2022/05/28 02:24:04;;;;;;;12.00;3.35;;;12.30;60.60;;;12.76;51.02;98026.91;5006690;28;20053;-37
2022/05/28 02:26:46;;;;;;;9.82;2.60;;;12.40;60.30;;;12.70;51.02;98023.03;5007232;28;20050;-38
2022/05/28 02:29:15;;;;;;;5.95;2.50;;;12.30;60.30;;;12.71;50.94;98016.69;5005201;28;20054;-37
2022/05/28 02:31:47;;;;;;;6.53;2.50;;;12.30;60.40;;;12.73;51.05;98013.84;5005283;28;20049;-38
2022/05/28 02:34:16;;;;;;;8.30;2.10;;;12.30;60.00;;;12.68;50.58;98013.50;5005398;28;20049;-38
2022/05/28 02:36:45;;;;;;;8.63;2.92;;;12.30;60.00;;;12.73;50.43;98013.84;5006404;28;20061;-38
2022/05/28 02:39:13;;;;;;;6.68;2.58;;;12.30;59.30;;;12.73;50.54;98008.50;5006463;28;20052;-38
2022/05/28 02:41:41;;;;;;;5.15;2.30;;;12.30;59.40;;;12.67;50.70;98014.53;5007195;28;20057;-38
2022/05/28 02:44:09;;;;;;;8.00;2.67;;;12.30;59.30;;;12.70;50.32;98007.00;5006341;28;20251;-38
2022/05/28 02:46:38;;;;;;;9.43;2.40;;;12.30;59.50;;;12.65;50.47;98006.66;5005594;28;20058;-38
2022/05/28 02:49:07;;;;;;;11.15;2.90;;;12.20;59.30;;;12.54;50.28;98013.19;5006182;28;20045;-38
2022/05/28 02:51:37;;;;;;;5.50;2.42;;;12.00;59.20;;;12.47;50.51;98006.00;5005277;28;20052;-37
2022/05/28 02:54:05;;;;;;;7.38;2.45;;;12.00;59.60;;;12.41;50.37;98002.13;5006460;28;20046;-38
2022/05/28 02:56:34;;;;;;;7.20;2.72;;;11.90;59.60;;;12.35;50.58;98013.47;5006910;28;20052;-38
2022/05/28 02:59:02;;;;;;;9.77;2.45;;;11.90;59.50;;;12.33;50.40;98010.97;5006685;28;20045;-38
2022/05/28 03:01:33;;;;;;;6.20;2.97;;;11.80;59.90;;;12.34;50.83;98007.28;5005103;28;20058;-38
2022/05/28 03:04:04;;;;;;;7.10;2.08;;;11.80;60.00;;;12.33;50.79;98015.44;5006831;28;20063;-38
2022/05/28 03:06:35;;;;;;;4.22;2.05;;;11.80;60.00;;;12.30;51.00;98015.78;5005983;28;20068;-38
2022/05/28 03:09:08;;;;;;;7.22;2.30;;;11.80;60.20;;;12.27;50.77;98018.78;5006410;28;20060;-39
2022/05/28 03:11:38;;;;;;;9.13;3.87;;;11.70;60.50;;;12.29;50.71;98027.44;5005874;28;20056;-38
2022/05/28 03:14:06;;;;;;;6.30;2.25;;;11.70;60.80;;;12.22;51.17;98019.28;5008028;28;20097;-38
2022/05/28 03:16:34;;;;;;;14.40;3.00;;;11.70;61.40;;;12.23;51.06;98028.94;5005348;28;20072;-38
2022/05/28 03:19:02;;;;;;;8.57;2.47;;;11.70;61.30;;;12.14;51.16;98020.09;5005541;28;20050;-38
2022/05/28 03:21:31;;;;;;;11.60;3.25;;;11.60;61.40;;;12.09;51.23;98011.72;5010257;28;20057;-38
2022/05/28 03:24:00;;;;;;;7.72;2.85;;;11.50;61.50;;;11.96;51.59;98016.66;5010137;28;20359;-38
2022/05/28 03:26:30;;;;;;;7.90;3.37;;;11.30;61.80;;;11.93;51.38;98023.16;5010917;28;20052;-38
2022/05/28 03:28:58;;;;;;;8.47;3.20;;;11.30;61.90;;;11.86;51.35;98022.09;5010390;28;20061;-38
2022/05/28 03:31:27;;;;;;;9.73;2.97;;;11.20;62.00;;;11.74;51.79;98016.22;5011063;28;20042;-38
2022/05/28 03:33:57;;;;;;;5.35;2.35;;;11.10;62.70;;;11.67;52.26;98023.19;5010081;28;20042;-37
2022/05/28 03:36:27;;;;;;;8.13;2.47;;;11.00;62.80;;;11.64;52.10;98023.50;5010541;28;20048;-37
2022/05/28 03:38:56;;;;;;;8.65;3.35;;;11.00;62.90;;;11.65;51.99;98021.66;5009469;28;20054;-38
2022/05/28 03:41:27;;;;;;;6.47;2.13;;;11.10;62.60;;;11.56;51.88;98032.28;5009144;28;20382;-38
2022/05/28 03:43:55;;;;;;;7.25;2.47;;;11.00;63.10;;;11.53;52.01;98023.78;5009182;28;20054;-38
2022/05/28 03:46:33;;;;;;;6.80;2.90;;;11.00;63.20;;;11.56;51.99;98026.13;5011252;28;20737;-38
2022/05/28 03:49:21;;;;;;;7.00;2.80;;;11.00;63.10;;;11.52;52.45;98030.13;5009788;28;20531;-38
2022/05/28 03:51:49;;;;;;;7.73;3.57;;;10.90;63.30;;;11.50;51.92;98030.25;5007763;28;20050;-38
2022/05/28 03:54:17;;;;;;;6.70;2.70;;;10.90;63.20;;;11.43;52.23;98034.53;5010403;28;20400;-38
2022/05/28 03:56:47;;;;;;;8.90;2.40;;;10.80;63.50;;;11.39;52.54;98031.34;5008961;28;20085;-38
2022/05/28 03:59:15;;;;;;;9.37;3.00;;;10.80;63.60;;;11.36;52.42;98034.34;5007676;28;20053;-38
2022/05/28 04:01:43;;;;;;;8.00;2.80;;;10.80;63.50;;;11.40;52.42;98037.53;5009272;28;20045;-38
2022/05/28 04:04:11;;;;;;;7.13;2.53;;;10.80;63.10;;;11.31;52.86;98043.81;5009895;28;20054;-38
2022/05/28 04:06:39;;;;;;;10.13;2.30;;;10.80;63.30;;;11.27;52.49;98039.78;5009625;28;20050;-38
2022/05/28 04:09:07;;;;;;;6.77;2.33;;;10.60;63.70;;;11.10;53.19;98044.97;5008608;28;20053;-38
2022/05/28 04:11:38;;;;;;;6.37;2.60;;;10.50;64.90;;;11.11;52.83;98046.66;5009265;28;20057;-38
2022/05/28 04:14:06;;;;;;;6.13;3.27;;;10.50;64.80;;;11.08;53.21;98049.63;5009421;28;20053;-38
2022/05/28 04:16:36;;;;;;;5.83;2.27;;;10.50;65.00;;;11.04;53.31;98057.09;5009766;28;20267;-38
2022/05/28 04:19:04;;;;;;;5.20;2.00;;;10.50;65.10;;;11.05;53.25;98049.94;5009294;28;20048;-43
2022/05/28 04:21:32;;;;;;;4.78;1.92;;;10.50;65.20;;;11.02;53.35;98050.25;5008635;28;20050;-38
2022/05/28 04:23:59;;;;;;;10.27;2.53;;;10.50;65.50;;;10.96;53.52;98053.53;5007710;28;20060;-37
2022/05/28 04:26:27;;;;;;;7.27;3.07;;;10.40;65.90;;;10.96;53.75;98049.03;5009213;28;20360;-38
2022/05/28 04:28:55;;;;;;;6.03;1.97;;;10.50;65.70;;;10.96;54.31;98050.88;5008258;28;20061;-38
2022/05/28 04:31:24;;;;;;;10.55;2.80;;;10.50;65.70;;;11.01;54.00;98049.41;5007019;28;20056;-38
2022/05/28 04:33:52;;;;;;;8.37;3.53;;;10.60;65.60;;;11.00;54.02;98058.38;5008287;28;20053;-37
2022/05/28 04:36:20;;;;;;;7.93;2.40;;;10.60;66.00;;;11.07;54.27;98058.63;5007744;28;20054;-38
2022/05/28 04:38:48;;;;;;;10.30;3.35;;;10.60;65.60;;;11.12;54.30;98064.31;5008037;28;20057;-38
2022/05/28 04:41:17;;;;;;;5.67;2.20;;;10.80;65.70;;;11.08;54.37;98068.28;5008429;28;20056;-38
2022/05/28 04:43:45;;;;;;;5.03;2.53;;;10.70;66.20;;;11.16;54.67;98063.00;5007791;28;20340;-38
2022/05/28 04:46:12;;;;;;;6.57;2.33;;;10.80;65.90;;;11.13;54.44;98063.34;5007878;28;20068;-38
2022/05/28 04:48:41;;;;;;;7.57;2.85;;;10.80;66.50;;;11.15;54.63;98069.34;5008933;28;20498;-38
2022/05/28 04:51:09;;;;;;;6.60;2.83;;;10.80;66.20;;;11.08;55.33;98073.59;5008596;28;20061;-38
2022/05/28 04:53:36;;;;;;;6.43;2.40;;;10.70;66.90;;;11.12;55.16;98072.31;5008105;28;20324;-38
2022/05/28 04:56:05;;;;;;;4.18;2.10;;;10.80;66.70;;;11.18;55.12;98071.69;5009735;28;20335;-38
2022/05/28 04:58:37;;;;;;;6.80;2.77;;;10.80;66.80;;;11.29;55.15;98077.78;5008175;28;20227;-38
2022/05/28 05:01:05;;;;;;;7.63;2.95;;;10.90;66.60;;;11.28;54.95;98076.09;5008690;28;20046;-38
2022/05/28 05:03:33;;;;;;;9.20;2.60;;;11.00;66.10;;;11.38;54.57;98077.69;5008682;28;20046;-38
2022/05/28 05:06:01;;;;;;;11.63;4.10;;;11.00;66.00;;;11.36;55.21;98081.47;5008265;28;20060;-38
2022/05/28 05:08:30;;;;;;;9.40;3.47;;;11.10;66.70;;;11.26;55.48;98075.41;5007839;28;20057;-38
2022/05/28 05:10:58;;;;;;;7.13;2.90;;;10.90;67.10;;;11.28;55.23;98082.25;5007630;28;20132;-38
2022/05/28 05:13:26;;;;;;;8.95;3.05;;;11.00;66.40;;;11.33;55.43;98079.13;5007401;28;20065;-38
2022/05/28 05:15:54;;;;;;;5.95;2.95;;;11.00;67.00;;;11.35;55.10;98080.66;5008293;28;20056;-38
2022/05/28 05:18:22;;;;;;;6.57;2.20;;;11.10;66.00;;;11.38;54.96;98076.81;5007684;28;20054;-38
2022/05/28 05:20:50;;;;;;;5.63;2.20;;;11.10;66.10;;;11.39;55.31;98087.34;5006403;28;20054;-38
2022/05/28 05:23:17;;;;;;;7.53;2.83;;;11.10;66.10;;;11.40;55.70;98075.69;5005790;28;20065;-38
2022/05/28 05:25:45;;;;;;;8.40;2.30;;;11.20;65.90;;;11.46;54.92;98084.03;5009062;28;20057;-38
2022/05/28 05:28:13;;;;;;;8.87;3.17;;;11.20;65.50;;;11.37;54.70;98085.81;5006995;28;20276;-38
2022/05/28 05:30:41;;;;;;;6.77;2.53;;;11.20;65.10;;;11.49;54.00;98089.91;5008260;28;20050;-38
2022/05/28 05:33:09;;;;;;;6.28;2.65;;;11.20;64.40;;;11.45;54.54;98085.88;5007720;28;20091;-38
2022/05/28 05:35:37;;;;;;;4.50;2.27;;;11.30;64.80;;;11.50;53.75;98077.44;5007762;28;20049;-39
2022/05/28 05:38:07;;;;;;;9.65;3.10;;;11.30;63.80;;;11.45;53.99;98087.72;5007331;28;20050;-38
2022/05/28 05:40:40;;;;;;;5.37;2.83;;;11.20;64.20;;;11.45;53.97;98088.53;5007670;28;20052;-39
2022/05/28 05:43:07;;;;;;;7.00;2.27;;;11.20;63.20;;;11.42;53.64;98096.88;5006668;28;20072;-39
2022/05/28 05:45:35;;;;;;;5.50;2.15;;;11.20;63.20;;;11.37;53.55;98093.81;5006727;28;20053;-39
2022/05/28 05:48:04;;;;;;;5.60;2.40;;;11.20;63.00;;;11.32;54.35;98096.09;5007436;28;20371;-38
2022/05/28 05:50:32;;;;;;;5.65;2.05;;;11.10;63.50;;;11.39;53.75;98102.50;5008484;28;20063;-39
2022/05/28 05:53:00;;;;;;;4.90;1.75;;;11.20;63.20;;;11.39;53.33;98100.66;5007137;28;20256;-38
2022/05/28 05:55:27;;;;;;;8.27;2.50;;;11.20;62.80;;;11.46;52.96;98100.03;5006012;28;20098;-39
2022/05/28 05:57:55;;;;;;;5.60;2.05;;;11.20;62.30;;;11.38;53.24;98099.00;5007049;28;20060;-38
2022/05/28 06:00:23;;;;;;;9.40;2.25;;;11.20;62.30;;;11.29;54.11;98107.91;5005638;28;20497;-39
2022/05/28 06:02:51;;;;;;;7.95;2.88;;;11.20;63.50;;;11.33;54.28;98097.78;5007161;28;20411;-38
2022/05/28 06:05:19;;;;;;;7.47;2.50;;;11.20;63.10;;;11.32;53.01;98102.28;5007312;28;20057;-39
2022/05/28 06:07:47;;;;;;;7.40;2.80;;;11.20;61.80;;;11.43;53.30;98101.19;5007635;28;20058;-39
2022/05/28 06:10:16;;;;;;;4.40;1.98;;;11.30;62.40;;;11.50;52.95;98104.91;5005720;28;20229;-39
2022/05/28 06:12:43;;;;;;;8.73;2.20;;;11.40;61.20;;;11.43;52.26;98095.88;5005494;28;20221;-38
2022/05/28 06:15:12;;;;;;;5.38;2.10;;;11.30;60.60;;;11.44;53.29;98094.88;5006753;28;20045;-38
2022/05/28 06:17:40;;;;;;;4.10;2.35;;;11.30;61.80;;;11.49;52.37;98092.56;5006488;28;20348;-39
2022/05/28 06:20:12;;;;;;;6.30;1.90;;;11.40;60.50;;;11.47;52.41;98101.72;5007501;28;20054;-38
2022/05/28 06:22:40;;;;;;;7.90;2.38;;;11.40;60.00;;;11.51;52.29;98106.56;5005648;28;20056;-38
2022/05/28 06:25:08;;;;;;;4.90;1.98;;;11.40;60.10;;;11.67;52.20;98102.34;5006259;28;20057;-39
2022/05/28 06:27:37;;;;;;;8.27;2.13;;;11.50;60.30;;;11.61;51.79;98103.81;5006860;28;20046;-38
2022/05/28 06:30:06;;;;;;;6.10;2.08;;;11.60;58.50;;;11.67;52.06;98103.22;5006373;28;20068;-38
2022/05/28 06:32:34;;;;;;;5.65;3.00;;;11.60;59.10;;;11.50;51.25;98109.44;5007315;28;20057;-38
2022/05/28 06:35:02;;;;;;;5.05;2.03;;;11.50;58.10;;;11.62;51.49;98108.16;5008081;28;20084;-39
2022/05/28 06:37:30;;;;;;;6.55;3.17;;;11.60;58.50;;;11.56;51.04;98108.78;5006215;28;20054;-38
2022/05/28 06:39:59;;;;;;;6.47;2.00;;;11.50;57.60;;;11.62;51.06;98101.00;5006982;28;20054;-38
2022/05/28 06:42:26;;;;;;;10.50;2.67;;;11.60;58.50;;;11.59;50.57;98103.13;5006146;28;20056;-39
2022/05/28 06:44:55;;;;;;;9.95;2.30;;;11.60;57.90;;;11.66;50.91;98098.03;5007255;28;20052;-38
2022/05/28 06:47:23;;;;;;;6.65;2.33;;;11.60;58.10;;;11.62;51.21;98097.50;5006270;28;20523;-38
2022/05/28 06:52:37;;;;;;;6.55;1.83;;;11.60;58.80;;;11.65;51.28;98107.88;5006568;28;20105;-38
2022/05/28 06:55:06;;;;;;;6.70;2.33;;;11.70;58.40;;;11.70;51.43;98105.53;5006941;28;20061;-38
2022/05/28 06:57:34;;;;;;;2.95;1.73;;;11.80;57.00;;;11.69;50.94;98097.69;5004517;28;20050;-38
2022/05/28 07:00:04;;;;;;;6.68;1.80;;;11.80;57.80;;;11.78;50.95;98100.25;5006403;28;20266;-38
2022/05/28 07:02:33;;;;;;;6.57;2.10;;;11.80;57.80;;;11.97;50.75;98107.22;5005867;28;20069;-38
2022/05/28 07:05:01;;;;;;;5.75;1.70;;;12.00;58.00;;;11.96;50.97;98100.25;5007552;28;20456;-38
2022/05/28 07:07:29;;;;;;;4.72;2.33;;;12.00;57.00;;;12.07;51.26;98107.13;5006340;28;20054;-38
2022/05/28 07:09:56;;;;;;;6.10;2.80;;;12.00;58.20;;;12.15;50.34;98098.31;5006201;28;20060;-38
2022/05/28 07:12:24;;;;;;;3.92;1.60;;;12.10;56.70;;;12.20;49.71;98102.19;5006027;28;20056;-38
2022/05/28 07:14:52;;;;;;;5.07;1.67;;;12.20;56.10;;;12.30;49.97;98094.03;5005110;28;20046;-38
2022/05/28 07:17:20;;;;;;;3.72;1.50;;;12.30;57.00;;;12.28;48.56;98097.88;5006660;28;20337;-39
2022/05/28 07:19:49;;;;;;;5.18;2.42;;;12.30;54.20;;;12.29;48.65;98091.53;5009314;28;20054;-38
2022/05/28 07:22:18;;;;;;;2.70;1.55;;;12.30;54.10;;;12.36;49.06;98090.72;5035723;28;20055;-38
2022/05/28 07:24:46;;;;;;;5.30;1.98;;;12.20;55.50;;;12.30;49.13;98088.69;5035374;28;20112;-39
2022/05/28 07:27:14;;;;;;;6.25;1.70;;;12.30;55.30;;;12.31;48.28;98082.38;5025673;28;20096;-39
2022/05/28 07:29:42;;;;;;;5.57;2.28;;;12.30;54.30;;;12.40;49.04;98084.06;5028167;28;20247;-39
2022/05/28 07:32:10;;;;;;;7.90;1.95;;;12.40;55.70;;;12.45;48.11;98083.59;5039783;28;20358;-38
2022/05/28 07:34:38;;;;;;;4.38;1.80;;;12.50;53.70;;;12.48;48.50;98077.06;5028541;28;20262;-38
2022/05/28 07:37:06;;;;;;;4.97;2.22;;;12.40;54.90;;;12.54;48.43;98079.94;5027868;28;20292;-38
2022/05/28 07:39:34;;;;;;;4.65;1.65;;;12.60;53.90;;;12.69;48.88;98074.78;5045226;28;20080;-38
2022/05/28 07:42:05;;;;;;;5.63;2.28;;;12.70;54.70;;;12.85;48.88;98081.16;5045663;28;20228;-38
2022/05/28 07:44:35;;;;;;;9.13;1.63;;;12.90;54.90;;;12.83;47.84;98083.16;5046102;28;20417;-38
2022/05/28 07:47:07;;;;;;;4.40;1.67;;;12.90;53.00;;;12.93;47.93;98075.81;5031017;28;20283;-38
2022/05/28 07:49:37;;;;;;;9.30;2.65;;;12.90;54.00;;;13.06;48.25;98076.16;5025561;28;20050;-39
2022/05/28 07:52:06;;;;;;;5.55;3.03;;;13.10;54.10;;;13.17;47.83;98072.34;5023605;28;20045;-38
2022/05/28 07:54:34;;;;;;;3.90;1.50;;;13.20;53.50;;;13.30;47.66;98069.16;5032820;28;20052;-38
2022/05/28 07:57:04;;;;;;;3.40;1.60;;;13.30;53.50;;;13.34;47.86;98063.34;5035434;28;20059;-39
2022/05/28 07:59:32;;;;;;;3.15;2.00;;;13.40;53.40;;;13.36;47.47;98068.53;5036881;28;20053;-38
2022/05/28 08:02:04;;;;;;;3.78;2.42;;;13.50;53.20;;;13.46;47.31;98061.16;5037452;28;20045;-39
2022/05/28 08:04:32;;;;;;;4.78;1.70;;;13.50;52.20;;;13.45;46.38;98058.63;5036356;28;20041;-38
2022/05/28 08:07:02;;;;;;;4.28;1.52;;;13.60;51.50;;;13.45;46.50;98055.97;5038908;28;20243;-39
2022/05/28 08:09:29;;;;;;;3.03;1.45;;;13.60;51.40;;;13.51;46.28;98055.28;5040861;28;20059;-38
2022/05/28 08:11:58;;;;;;;5.45;1.73;;;13.60;51.70;;;13.58;46.38;98053.59;5039919;28;20045;-38
2022/05/28 08:14:26;;;;;;;3.70;1.33;;;13.60;51.60;;;13.70;46.58;98048.72;5038651;28;20422;-39
2022/05/28 08:16:54;;;;;;;5.25;1.92;;;13.80;51.30;;;13.61;45.43;98053.28;5039909;28;20063;-39
2022/05/28 08:19:22;;;;;;;7.07;2.10;;;13.80;49.60;;;13.44;45.08;98051.63;5039318;28;20379;-38
2022/05/28 08:24:37;;;;;;;5.55;2.05;;;13.70;51.20;;;13.67;45.95;98062.47;5040296;28;20045;-38
2022/05/28 08:27:04;;;;;;;4.82;1.58;;;13.70;50.40;;;13.71;45.98;98053.09;5040500;28;20057;-38
2022/05/28 08:29:32;;;;;;;3.58;1.50;;;13.70;51.40;;;13.75;45.93;98059.75;5041154;28;20253;-38
2022/05/28 08:32:00;;;;;;;4.47;1.60;;;13.70;51.50;;;13.72;46.11;98055.56;5038080;28;20057;-38
2022/05/28 08:34:28;;;;;;;4.90;2.38;;;13.70;51.90;;;13.82;45.86;98058.03;5039134;28;20060;-38
2022/05/28 08:36:56;;;;;;;3.83;1.40;;;13.80;51.20;;;13.70;45.59;98051.41;5040640;28;20048;-38
2022/05/28 08:39:24;;;;;;;5.22;1.45;;;13.70;51.40;;;13.81;45.62;98051.03;5040261;28;20049;-38
2022/05/28 08:41:57;;;;;;;4.43;1.67;;;13.80;51.80;;;13.91;45.61;98038.28;5038684;28;20053;-38
2022/05/28 08:44:33;;;;;;;5.88;1.60;;;14.00;50.50;;;14.03;45.87;98038.75;5039445;28;20047;-38
2022/05/28 08:47:14;;;;;;;3.35;1.80;;;14.10;50.70;;;14.09;45.39;98045.25;5040439;28;20056;-38
2022/05/28 08:49:46;;;;;;;2.80;1.20;;;14.20;49.40;;;14.06;44.80;98041.09;5039939;28;20068;-38
2022/05/28 08:53:01;;;;;;;4.07;1.50;;;14.20;49.40;;;13.92;44.67;98039.97;5038672;28;20053;-39
2022/05/28 08:55:40;;;;;;;3.78;1.50;;;14.10;49.00;;;13.81;44.06;98040.34;5042127;28;20066;-38
2022/05/28 08:58:13;;;;;;;5.43;1.50;;;14.00;48.30;;;13.90;44.66;98036.63;5039439;28;20281;-38
2022/05/28 09:01:06;;;;;;;6.18;1.50;;;14.00;49.30;;;14.04;43.71;98031.56;5038285;28;20055;-38
2022/05/28 09:03:54;;;;;;;7.63;1.67;;;14.20;47.60;;;14.19;44.72;98032.50;5038115;28;20045;-38
2022/05/28 09:06:49;;;;;;;3.15;1.58;;;14.30;48.70;;;14.34;44.76;98033.41;5039700;28;20054;-38
2022/05/28 09:09:18;;;;;;;5.47;1.50;;;14.50;48.90;;;14.43;44.27;98036.06;5039160;28;20362;-38
2022/05/28 09:12:05;;;;;;;2.38;1.17;;;14.70;48.30;;;14.55;43.17;98037.31;5039601;28;20047;-38
2022/05/28 09:14:37;;;;;;;2.28;1.23;;;14.90;46.70;;;14.65;43.29;98032.59;5038126;28;20056;-38
2022/05/28 09:17:16;;;;;;;4.43;2.22;;;14.90;46.80;;;14.73;43.16;98024.50;5039721;28;20110;-38
2022/05/28 09:19:45;;;;;;;4.45;2.38;;;15.00;46.90;;;14.81;43.77;98031.66;5039428;28;20050;-38
2022/05/28 09:22:13;;;;;;;5.90;1.58;;;15.00;47.70;;;14.78;43.16;98032.00;5037529;28;20049;-38
2022/05/28 09:24:42;;;;;;;5.07;1.58;;;15.00;46.20;;;14.52;43.31;98035.84;5039627;28;20049;-39
2022/05/28 09:27:48;;;;;;;7.38;2.38;;;14.70;47.40;;;14.35;42.75;98026.22;5037530;28;20061;-38
2022/05/28 09:30:37;;;;;;;4.72;2.28;;;14.40;46.80;;;14.44;43.66;98027.00;5034843;28;20068;-38
2022/05/28 09:33:28;;;;;;;5.65;2.10;;;14.50;48.40;;;14.45;43.87;98018.78;5036923;28;20276;-38
2022/05/28 09:36:14;;;;;;;4.05;1.70;;;14.60;48.10;;;14.74;44.11;98015.44;5034901;28;20379;-38
2022/05/28 09:39:17;;;;;;;4.10;1.75;;;15.00;47.90;;;14.88;42.22;98015.69;5032413;28;20045;-38
2022/05/28 09:42:12;;;;;;;4.65;2.13;;;15.20;44.70;;;15.03;42.56;98015.75;5037976;28;20041;-38
2022/05/28 09:45:01;;;;;;;1.88;1.30;;;15.40;45.70;;;15.05;42.36;98017.22;5035557;28;20053;-38
2022/05/28 09:47:51;;;;;;;4.07;2.13;;;15.40;46.00;;;15.11;42.07;98010.31;5036483;28;20045;-38
2022/05/28 09:50:23;;;;;;;;;;;15.40;45.50;;;14.69;41.69;98009.78;5038995;28;20259;-38
2022/05/28 09:56:26;;;;;;;2.97;1.60;;;15.20;45.80;;;15.15;42.69;98007.06;5043659;28;20229;-38
2022/05/28 09:58:54;;;;;;;4.07;1.80;;;15.60;46.20;;;15.38;42.36;98005.38;5038090;28;20094;-38
2022/05/28 10:01:27;;;;;;;7.25;1.83;;;15.80;44.80;;;15.58;41.61;98005.66;5037663;28;20048;-38
2022/05/28 10:04:29;;;;;;;;;;;15.90;44.10;;;15.48;41.15;98001.38;5037974;28;20061;-39
2022/05/28 10:07:02;;;;;;;6.32;2.45;;;15.80;43.80;;;15.39;40.47;98013.22;5038289;28;19932;-38
2022/05/28 10:09:34;;;;;;;2.00;1.50;;;15.60;43.70;;;15.35;41.52;97999.34;5038854;28;20068;-38
2022/05/28 10:12:15;;;;;;;5.00;1.80;;;15.40;45.60;;;14.96;41.89;98005.72;5038748;28;20068;-38
2022/05/28 10:14:42;;;;;;;4.13;1.55;;;15.30;45.40;;;15.03;42.31;98010.38;5037023;28;20048;-38
2022/05/28 10:17:23;;;;;;;4.55;1.65;;;15.10;46.40;;;15.03;41.63;98005.00;5038451;28;20045;-38
2022/05/28 10:19:55;;;;;;;4.57;1.50;;;15.20;45.50;;;15.22;42.30;97996.47;5037455;28;20045;-38
2022/05/28 10:22:25;;;;;;;3.70;1.70;;;15.40;46.40;;;15.24;41.13;98009.69;5039329;28;20262;-38
2022/05/28 10:25:32;;;;;;;4.78;1.88;;;15.40;45.00;;;15.14;42.01;97996.50;5034823;28;20061;-38
2022/05/28 10:28:00;;;;;;;2.80;1.40;;;15.30;45.70;;;15.33;41.32;97997.84;5036821;28;20102;-38
2022/05/28 10:30:35;;;;;;;5.20;2.22;;;15.50;44.70;;;15.13;40.53;98001.06;5037717;28;20065;-38
2022/05/28 10:33:11;;;;;;;4.10;1.98;;;15.30;43.40;;;15.21;41.23;97983.22;5035731;28;20045;-38
2022/05/28 10:35:41;;;;;;;6.18;2.20;;;15.40;44.70;;;15.41;41.50;97988.88;5037210;28;20978;-39
2022/05/28 10:38:23;;;;;;;5.20;2.50;;;15.60;45.20;;;15.36;39.35;97981.41;5032912;28;20064;-38
2022/05/28 10:40:58;;;;;;;6.00;1.60;;;15.70;42.30;;;15.41;37.24;97979.00;5021306;28;20336;-38
2022/05/28 10:43:37;;;;;;;4.15;1.85;;;15.80;39.00;;;15.34;37.31;97975.38;5022031;28;20053;-38
2022/05/28 10:46:39;;;;;;;2.90;1.58;;;15.70;39.30;;;15.41;38.10;97976.31;5021747;28;20050;-38
2022/05/28 10:49:49;;;;;;;5.00;1.70;;;15.80;40.00;;;15.61;38.36;97973.91;5022388;28;20049;-39
2022/05/28 10:52:36;;;;;;;3.75;1.50;;;15.80;41.90;;;15.48;39.19;97977.22;5035992;28;20057;-38